sensor_id;sensor_type;location;lat;lon;timestamp;temperature;humidity
17659;DHT22;8948;51.534;8.262;2024-02-04T00:02:57;10.50;80.80
17659;DHT22;8948;51.534;8.262;2024-02-04T00:07:58;10.50;80.90
17659;DHT22;8948;51.534;8.262;2024-02-04T00:12:59;10.50;80.60
17659;DHT22;8948;51.534;8.262;2024-02-04T00:18:00;10.50;80.70
17659;DHT22;8948;51.534;8.262;2024-02-04T00:23:01;10.50;80.60
17659;DHT22;8948;51.534;8.262;2024-02-04T00:28:01;10.50;80.20
17659;DHT22;8948;51.534;8.262;2024-02-04T00:33:02;10.50;80.40
17659;DHT22;8948;51.534;8.262;2024-02-04T00:38:03;10.50;80.40
17659;DHT22;8948;51.534;8.262;2024-02-04T00:43:04;10.50;80.60
17659;DHT22;8948;51.534;8.262;2024-02-04T00:48:05;10.50;80.30
17659;DHT22;8948;51.534;8.262;2024-02-04T00:53:05;10.60;80.30
17659;DHT22;8948;51.534;8.262;2024-02-04T00:58:06;10.40;80.50
17659;DHT22;8948;51.534;8.262;2024-02-04T01:03:06;10.40;80.60
17659;DHT22;8948;51.534;8.262;2024-02-04T01:08:07;10.40;80.60
17659;DHT22;8948;51.534;8.262;2024-02-04T01:13:08;10.40;80.70
17659;DHT22;8948;51.534;8.262;2024-02-04T01:18:08;10.40;80.60
17659;DHT22;8948;51.534;8.262;2024-02-04T01:23:09;10.40;80.60
17659;DHT22;8948;51.534;8.262;2024-02-04T01:28:10;10.40;80.60
17659;DHT22;8948;51.534;8.262;2024-02-04T01:33:10;10.40;81.00
17659;DHT22;8948;51.534;8.262;2024-02-04T01:38:11;10.30;81.40
17659;DHT22;8948;51.534;8.262;2024-02-04T01:43:12;10.30;81.70
17659;DHT22;8948;51.534;8.262;2024-02-04T01:48:12;10.30;82.00
17659;DHT22;8948;51.534;8.262;2024-02-04T01:53:17;10.30;82.20
17659;DHT22;8948;51.534;8.262;2024-02-04T01:58:18;10.30;82.50
17659;DHT22;8948;51.534;8.262;2024-02-04T02:03:19;10.20;82.30
17659;DHT22;8948;51.534;8.262;2024-02-04T02:08:19;10.20;82.40
17659;DHT22;8948;51.534;8.262;2024-02-04T02:13:23;10.20;82.50
17659;DHT22;8948;51.534;8.262;2024-02-04T02:23:39;10.20;82.80
17659;DHT22;8948;51.534;8.262;2024-02-04T02:28:40;10.20;82.80
17659;DHT22;8948;51.534;8.262;2024-02-04T02:33:41;10.20;83.20
17659;DHT22;8948;51.534;8.262;2024-02-04T02:38:51;10.10;83.30
17659;DHT22;8948;51.534;8.262;2024-02-04T02:43:54;10.20;83.30
17659;DHT22;8948;51.534;8.262;2024-02-04T02:48:55;10.20;83.40
17659;DHT22;8948;51.534;8.262;2024-02-04T02:53:56;10.20;83.80
17659;DHT22;8948;51.534;8.262;2024-02-04T02:58:57;10.20;84.10
17659;DHT22;8948;51.534;8.262;2024-02-04T03:03:57;10.20;84.00
17659;DHT22;8948;51.534;8.262;2024-02-04T03:08:58;10.20;83.50
17659;DHT22;8948;51.534;8.262;2024-02-04T03:13:58;10.30;83.30
17659;DHT22;8948;51.534;8.262;2024-02-04T03:18:59;10.30;83.20
17659;DHT22;8948;51.534;8.262;2024-02-04T03:23:59;10.30;83.00
17659;DHT22;8948;51.534;8.262;2024-02-04T03:29:00;10.30;83.20
17659;DHT22;8948;51.534;8.262;2024-02-04T03:34:01;10.40;82.90
17659;DHT22;8948;51.534;8.262;2024-02-04T03:39:01;10.40;82.90
17659;DHT22;8948;51.534;8.262;2024-02-04T03:44:02;10.30;83.10
17659;DHT22;8948;51.534;8.262;2024-02-04T03:49:03;10.30;83.10
17659;DHT22;8948;51.534;8.262;2024-02-04T03:54:03;10.40;82.90
17659;DHT22;8948;51.534;8.262;2024-02-04T03:59:04;10.40;82.90
17659;DHT22;8948;51.534;8.262;2024-02-04T04:04:04;10.40;82.70
17659;DHT22;8948;51.534;8.262;2024-02-04T04:09:05;10.40;82.50
17659;DHT22;8948;51.534;8.262;2024-02-04T04:14:06;10.40;82.10
17659;DHT22;8948;51.534;8.262;2024-02-04T04:19:07;10.40;82.00
17659;DHT22;8948;51.534;8.262;2024-02-04T04:24:07;10.40;82.00
17659;DHT22;8948;51.534;8.262;2024-02-04T04:29:08;10.30;81.80
17659;DHT22;8948;51.534;8.262;2024-02-04T04:34:09;10.40;81.70
17659;DHT22;8948;51.534;8.262;2024-02-04T04:39:09;10.40;81.80
17659;DHT22;8948;51.534;8.262;2024-02-04T04:44:10;10.40;81.60
17659;DHT22;8948;51.534;8.262;2024-02-04T04:49:10;10.40;81.40
17659;DHT22;8948;51.534;8.262;2024-02-04T04:54:11;10.40;81.20
17659;DHT22;8948;51.534;8.262;2024-02-04T04:59:11;10.40;81.50
17659;DHT22;8948;51.534;8.262;2024-02-04T05:04:12;10.40;81.20
17659;DHT22;8948;51.534;8.262;2024-02-04T05:09:12;10.40;81.20
17659;DHT22;8948;51.534;8.262;2024-02-04T05:14:13;10.40;81.40
17659;DHT22;8948;51.534;8.262;2024-02-04T05:19:13;10.40;81.10
17659;DHT22;8948;51.534;8.262;2024-02-04T05:24:14;10.40;81.30
17659;DHT22;8948;51.534;8.262;2024-02-04T05:29:15;10.40;81.60
17659;DHT22;8948;51.534;8.262;2024-02-04T05:34:15;10.40;81.50
17659;DHT22;8948;51.534;8.262;2024-02-04T05:39:16;10.40;81.80
17659;DHT22;8948;51.534;8.262;2024-02-04T05:44:17;10.40;81.80
17659;DHT22;8948;51.534;8.262;2024-02-04T05:49:17;10.40;82.00
17659;DHT22;8948;51.534;8.262;2024-02-04T05:54:18;10.40;82.10
17659;DHT22;8948;51.534;8.262;2024-02-04T05:59:18;10.40;82.10
17659;DHT22;8948;51.534;8.262;2024-02-04T06:04:19;10.40;82.40
17659;DHT22;8948;51.534;8.262;2024-02-04T06:09:19;10.40;82.60
17659;DHT22;8948;51.534;8.262;2024-02-04T06:14:20;10.40;82.90
17659;DHT22;8948;51.534;8.262;2024-02-04T06:19:20;10.40;82.80
17659;DHT22;8948;51.534;8.262;2024-02-04T06:24:21;10.40;82.30
17659;DHT22;8948;51.534;8.262;2024-02-04T06:29:21;10.30;82.70
17659;DHT22;8948;51.534;8.262;2024-02-04T06:34:22;10.20;83.00
17659;DHT22;8948;51.534;8.262;2024-02-04T06:39:22;10.20;82.60
17659;DHT22;8948;51.534;8.262;2024-02-04T06:44:23;10.20;82.90
17659;DHT22;8948;51.534;8.262;2024-02-04T06:49:23;10.20;81.80
17659;DHT22;8948;51.534;8.262;2024-02-04T06:54:24;10.30;81.00
17659;DHT22;8948;51.534;8.262;2024-02-04T06:59:24;10.30;81.10
17659;DHT22;8948;51.534;8.262;2024-02-04T07:04:25;10.30;81.50
17659;DHT22;8948;51.534;8.262;2024-02-04T07:09:25;10.30;81.40
17659;DHT22;8948;51.534;8.262;2024-02-04T07:14:26;10.30;82.30
17659;DHT22;8948;51.534;8.262;2024-02-04T07:19:26;10.20;81.80
17659;DHT22;8948;51.534;8.262;2024-02-04T07:24:27;10.20;81.40
17659;DHT22;8948;51.534;8.262;2024-02-04T07:29:28;10.20;81.40
17659;DHT22;8948;51.534;8.262;2024-02-04T07:34:28;10.30;81.20
17659;DHT22;8948;51.534;8.262;2024-02-04T07:39:29;10.30;81.20
17659;DHT22;8948;51.534;8.262;2024-02-04T07:44:31;10.30;81.10
17659;DHT22;8948;51.534;8.262;2024-02-04T07:49:31;10.30;81.70
17659;DHT22;8948;51.534;8.262;2024-02-04T07:54:32;10.30;81.90
17659;DHT22;8948;51.534;8.262;2024-02-04T07:59:32;10.30;81.80
17659;DHT22;8948;51.534;8.262;2024-02-04T08:04:33;10.30;82.10
17659;DHT22;8948;51.534;8.262;2024-02-04T08:09:33;10.30;82.40
17659;DHT22;8948;51.534;8.262;2024-02-04T08:14:34;10.40;81.00
17659;DHT22;8948;51.534;8.262;2024-02-04T08:19:34;10.40;81.30
17659;DHT22;8948;51.534;8.262;2024-02-04T08:24:35;10.50;81.00
17659;DHT22;8948;51.534;8.262;2024-02-04T08:29:36;10.60;80.30
17659;DHT22;8948;51.534;8.262;2024-02-04T08:34:37;10.60;80.00
17659;DHT22;8948;51.534;8.262;2024-02-04T08:39:37;10.60;79.60
17659;DHT22;8948;51.534;8.262;2024-02-04T08:44:38;10.70;79.20
17659;DHT22;8948;51.534;8.262;2024-02-04T08:49:38;10.70;79.00
17659;DHT22;8948;51.534;8.262;2024-02-04T08:54:39;10.60;78.70
17659;DHT22;8948;51.534;8.262;2024-02-04T08:59:40;10.70;79.10
17659;DHT22;8948;51.534;8.262;2024-02-04T09:04:41;10.70;79.00
17659;DHT22;8948;51.534;8.262;2024-02-04T09:09:42;10.60;78.40
17659;DHT22;8948;51.534;8.262;2024-02-04T09:14:43;10.60;79.10
17659;DHT22;8948;51.534;8.262;2024-02-04T09:19:43;10.40;81.00
17659;DHT22;8948;51.534;8.262;2024-02-04T09:24:44;10.30;81.90
17659;DHT22;8948;51.534;8.262;2024-02-04T09:29:44;10.40;82.00
17659;DHT22;8948;51.534;8.262;2024-02-04T09:34:45;10.50;81.00
17659;DHT22;8948;51.534;8.262;2024-02-04T09:39:45;10.50;80.00
17659;DHT22;8948;51.534;8.262;2024-02-04T09:44:47;10.50;79.70
17659;DHT22;8948;51.534;8.262;2024-02-04T09:49:49;10.50;79.20
17659;DHT22;8948;51.534;8.262;2024-02-04T09:54:52;10.60;78.60
17659;DHT22;8948;51.534;8.262;2024-02-04T09:59:54;10.60;78.40
17659;DHT22;8948;51.534;8.262;2024-02-04T10:04:55;10.70;77.90
17659;DHT22;8948;51.534;8.262;2024-02-04T10:09:56;10.70;77.90
17659;DHT22;8948;51.534;8.262;2024-02-04T10:14:56;10.80;76.90
17659;DHT22;8948;51.534;8.262;2024-02-04T10:19:57;10.80;77.10
17659;DHT22;8948;51.534;8.262;2024-02-04T10:25:09;10.80;77.00
17659;DHT22;8948;51.534;8.262;2024-02-04T10:30:13;10.70;77.70
17659;DHT22;8948;51.534;8.262;2024-02-04T10:35:14;10.60;78.10
17659;DHT22;8948;51.534;8.262;2024-02-04T10:40:15;10.60;78.30
17659;DHT22;8948;51.534;8.262;2024-02-04T10:45:17;10.50;79.00
17659;DHT22;8948;51.534;8.262;2024-02-04T10:50:18;10.30;80.50
17659;DHT22;8948;51.534;8.262;2024-02-04T10:55:25;10.20;80.90
17659;DHT22;8948;51.534;8.262;2024-02-04T11:00:27;10.20;81.70
17659;DHT22;8948;51.534;8.262;2024-02-04T11:05:29;10.10;82.00
17659;DHT22;8948;51.534;8.262;2024-02-04T11:10:31;10.00;82.20
17659;DHT22;8948;51.534;8.262;2024-02-04T11:15:36;10.00;82.60
17659;DHT22;8948;51.534;8.262;2024-02-04T11:25:58;10.20;82.30
17659;DHT22;8948;51.534;8.262;2024-02-04T11:31:00;10.30;82.20
17659;DHT22;8948;51.534;8.262;2024-02-04T11:36:05;10.40;82.40
17659;DHT22;8948;51.534;8.262;2024-02-04T11:41:07;10.40;82.10
17659;DHT22;8948;51.534;8.262;2024-02-04T11:46:16;10.30;82.50
17659;DHT22;8948;51.534;8.262;2024-02-04T11:51:23;10.30;82.70
17659;DHT22;8948;51.534;8.262;2024-02-04T11:56:24;10.30;82.80
17659;DHT22;8948;51.534;8.262;2024-02-04T12:01:25;10.40;82.30
17659;DHT22;8948;51.534;8.262;2024-02-04T12:06:26;10.60;81.60
17659;DHT22;8948;51.534;8.262;2024-02-04T12:11:27;10.60;80.80
17659;DHT22;8948;51.534;8.262;2024-02-04T12:16:29;10.60;79.70
17659;DHT22;8948;51.534;8.262;2024-02-04T12:21:30;10.60;79.00
17659;DHT22;8948;51.534;8.262;2024-02-04T12:26:30;10.60;78.80
17659;DHT22;8948;51.534;8.262;2024-02-04T12:31:31;10.70;78.30
17659;DHT22;8948;51.534;8.262;2024-02-04T12:36:33;10.70;78.50
17659;DHT22;8948;51.534;8.262;2024-02-04T12:41:34;10.70;78.90
17659;DHT22;8948;51.534;8.262;2024-02-04T12:46:34;10.70;79.30
17659;DHT22;8948;51.534;8.262;2024-02-04T12:51:35;10.70;79.30
17659;DHT22;8948;51.534;8.262;2024-02-04T12:56:52;10.80;78.70
17659;DHT22;8948;51.534;8.262;2024-02-04T13:01:58;10.80;78.80
17659;DHT22;8948;51.534;8.262;2024-02-04T13:06:58;10.70;79.80
17659;DHT22;8948;51.534;8.262;2024-02-04T13:12:06;10.50;81.70
17659;DHT22;8948;51.534;8.262;2024-02-04T13:17:09;10.60;82.60
17659;DHT22;8948;51.534;8.262;2024-02-04T13:22:10;10.50;83.10
17659;DHT22;8948;51.534;8.262;2024-02-04T13:27:10;10.60;82.90
17659;DHT22;8948;51.534;8.262;2024-02-04T13:32:11;10.70;83.20
17659;DHT22;8948;51.534;8.262;2024-02-04T13:37:12;10.70;84.10
17659;DHT22;8948;51.534;8.262;2024-02-04T13:42:12;10.70;83.90
17659;DHT22;8948;51.534;8.262;2024-02-04T13:47:13;10.70;84.00
17659;DHT22;8948;51.534;8.262;2024-02-04T13:52:13;10.70;83.70
17659;DHT22;8948;51.534;8.262;2024-02-04T13:57:14;10.80;83.60
17659;DHT22;8948;51.534;8.262;2024-02-04T14:02:14;10.80;83.40
17659;DHT22;8948;51.534;8.262;2024-02-04T14:07:15;10.90;82.90
17659;DHT22;8948;51.534;8.262;2024-02-04T14:12:16;11.00;82.50
17659;DHT22;8948;51.534;8.262;2024-02-04T14:17:16;11.00;82.50
17659;DHT22;8948;51.534;8.262;2024-02-04T14:22:17;11.00;83.10
17659;DHT22;8948;51.534;8.262;2024-02-04T14:27:18;11.00;82.90
17659;DHT22;8948;51.534;8.262;2024-02-04T14:32:19;11.00;82.70
17659;DHT22;8948;51.534;8.262;2024-02-04T14:37:19;11.00;82.60
17659;DHT22;8948;51.534;8.262;2024-02-04T14:42:20;11.00;82.90
17659;DHT22;8948;51.534;8.262;2024-02-04T14:47:20;11.00;83.60
17659;DHT22;8948;51.534;8.262;2024-02-04T14:52:21;10.90;83.50
17659;DHT22;8948;51.534;8.262;2024-02-04T14:57:21;10.90;83.40
17659;DHT22;8948;51.534;8.262;2024-02-04T15:02:22;11.00;83.20
17659;DHT22;8948;51.534;8.262;2024-02-04T15:07:23;10.90;83.80
17659;DHT22;8948;51.534;8.262;2024-02-04T15:12:23;10.90;83.60
17659;DHT22;8948;51.534;8.262;2024-02-04T15:17:24;10.90;84.20
17659;DHT22;8948;51.534;8.262;2024-02-04T15:22:25;10.80;84.40
17659;DHT22;8948;51.534;8.262;2024-02-04T15:27:27;10.80;84.10
17659;DHT22;8948;51.534;8.262;2024-02-04T15:32:28;10.80;83.40
17659;DHT22;8948;51.534;8.262;2024-02-04T15:37:29;10.80;83.50
17659;DHT22;8948;51.534;8.262;2024-02-04T15:42:30;10.80;84.00
17659;DHT22;8948;51.534;8.262;2024-02-04T15:47:31;10.70;82.40
17659;DHT22;8948;51.534;8.262;2024-02-04T15:52:34;10.70;82.20
17659;DHT22;8948;51.534;8.262;2024-02-04T15:57:36;10.70;82.30
17659;DHT22;8948;51.534;8.262;2024-02-04T16:02:38;10.70;81.70
17659;DHT22;8948;51.534;8.262;2024-02-04T16:07:38;10.70;81.10
17659;DHT22;8948;51.534;8.262;2024-02-04T16:12:40;10.60;81.00
17659;DHT22;8948;51.534;8.262;2024-02-04T16:17:42;10.60;81.10
17659;DHT22;8948;51.534;8.262;2024-02-04T16:22:43;10.70;80.50
17659;DHT22;8948;51.534;8.262;2024-02-04T16:27:43;10.60;80.80
17659;DHT22;8948;51.534;8.262;2024-02-04T16:32:45;10.60;80.90
17659;DHT22;8948;51.534;8.262;2024-02-04T16:37:46;10.60;82.00
17659;DHT22;8948;51.534;8.262;2024-02-04T16:42:47;10.50;83.00
17659;DHT22;8948;51.534;8.262;2024-02-04T16:47:47;10.30;84.00
17659;DHT22;8948;51.534;8.262;2024-02-04T16:52:48;10.40;84.30
17659;DHT22;8948;51.534;8.262;2024-02-04T16:57:49;10.40;84.90
17659;DHT22;8948;51.534;8.262;2024-02-04T17:02:50;10.40;84.10
17659;DHT22;8948;51.534;8.262;2024-02-04T17:07:50;10.50;84.10
17659;DHT22;8948;51.534;8.262;2024-02-04T17:12:52;10.50;84.30
17659;DHT22;8948;51.534;8.262;2024-02-04T17:18:02;10.60;83.70
17659;DHT22;8948;51.534;8.262;2024-02-04T17:23:08;10.60;83.30
17659;DHT22;8948;51.534;8.262;2024-02-04T17:28:10;10.60;83.10
17659;DHT22;8948;51.534;8.262;2024-02-04T17:33:13;10.70;83.30
17659;DHT22;8948;51.534;8.262;2024-02-04T17:38:17;10.70;82.80
17659;DHT22;8948;51.534;8.262;2024-02-04T17:43:19;10.60;83.20
17659;DHT22;8948;51.534;8.262;2024-02-04T17:48:21;10.60;83.40
17659;DHT22;8948;51.534;8.262;2024-02-04T17:53:21;10.60;82.90
17659;DHT22;8948;51.534;8.262;2024-02-04T17:58:23;10.50;83.60
17659;DHT22;8948;51.534;8.262;2024-02-04T18:03:23;10.60;83.40
17659;DHT22;8948;51.534;8.262;2024-02-04T18:08:24;10.60;83.40
17659;DHT22;8948;51.534;8.262;2024-02-04T18:13:28;10.60;82.90
17659;DHT22;8948;51.534;8.262;2024-02-04T18:18:28;10.60;82.50
17659;DHT22;8948;51.534;8.262;2024-02-04T18:23:29;10.60;83.10
17659;DHT22;8948;51.534;8.262;2024-02-04T18:28:29;10.60;82.70
17659;DHT22;8948;51.534;8.262;2024-02-04T18:33:30;10.60;83.40
17659;DHT22;8948;51.534;8.262;2024-02-04T18:38:30;10.60;83.70
17659;DHT22;8948;51.534;8.262;2024-02-04T18:43:31;10.50;83.50
17659;DHT22;8948;51.534;8.262;2024-02-04T18:48:32;10.50;84.00
17659;DHT22;8948;51.534;8.262;2024-02-04T18:53:33;10.50;84.10
17659;DHT22;8948;51.534;8.262;2024-02-04T18:58:34;10.50;83.70
17659;DHT22;8948;51.534;8.262;2024-02-04T19:03:35;10.50;83.80
17659;DHT22;8948;51.534;8.262;2024-02-04T19:08:35;10.50;83.70
17659;DHT22;8948;51.534;8.262;2024-02-04T19:13:36;10.50;83.70
17659;DHT22;8948;51.534;8.262;2024-02-04T19:18:37;10.50;83.50
17659;DHT22;8948;51.534;8.262;2024-02-04T19:23:38;10.50;83.50
17659;DHT22;8948;51.534;8.262;2024-02-04T19:28:39;10.50;83.30
17659;DHT22;8948;51.534;8.262;2024-02-04T19:33:40;10.50;83.10
17659;DHT22;8948;51.534;8.262;2024-02-04T19:38:40;10.50;83.00
17659;DHT22;8948;51.534;8.262;2024-02-04T19:43:41;10.50;82.70
17659;DHT22;8948;51.534;8.262;2024-02-04T19:48:41;10.60;82.90
17659;DHT22;8948;51.534;8.262;2024-02-04T19:53:42;10.60;82.50
17659;DHT22;8948;51.534;8.262;2024-02-04T19:58:42;10.60;82.20
17659;DHT22;8948;51.534;8.262;2024-02-04T20:03:43;10.60;82.30
17659;DHT22;8948;51.534;8.262;2024-02-04T20:08:43;10.60;82.30
17659;DHT22;8948;51.534;8.262;2024-02-04T20:13:44;10.70;82.50
17659;DHT22;8948;51.534;8.262;2024-02-04T20:18:44;10.60;82.70
17659;DHT22;8948;51.534;8.262;2024-02-04T20:23:48;10.70;82.60
17659;DHT22;8948;51.534;8.262;2024-02-04T20:28:48;10.60;83.00
17659;DHT22;8948;51.534;8.262;2024-02-04T20:33:49;10.60;82.90
17659;DHT22;8948;51.534;8.262;2024-02-04T20:38:49;10.60;83.00
17659;DHT22;8948;51.534;8.262;2024-02-04T20:43:50;10.60;83.30
17659;DHT22;8948;51.534;8.262;2024-02-04T20:48:52;10.60;83.00
17659;DHT22;8948;51.534;8.262;2024-02-04T20:53:53;10.70;83.00
17659;DHT22;8948;51.534;8.262;2024-02-04T20:58:53;10.70;82.90
17659;DHT22;8948;51.534;8.262;2024-02-04T21:03:54;10.70;83.10
17659;DHT22;8948;51.534;8.262;2024-02-04T21:08:55;10.70;82.90
17659;DHT22;8948;51.534;8.262;2024-02-04T21:13:55;10.70;83.00
17659;DHT22;8948;51.534;8.262;2024-02-04T21:18:58;10.70;83.10
17659;DHT22;8948;51.534;8.262;2024-02-04T21:24:01;10.70;82.90
17659;DHT22;8948;51.534;8.262;2024-02-04T21:29:01;10.70;82.70
17659;DHT22;8948;51.534;8.262;2024-02-04T21:34:02;10.70;82.60
17659;DHT22;8948;51.534;8.262;2024-02-04T21:39:02;10.70;82.80
17659;DHT22;8948;51.534;8.262;2024-02-04T21:44:03;10.60;83.00
17659;DHT22;8948;51.534;8.262;2024-02-04T21:49:04;10.70;82.50
17659;DHT22;8948;51.534;8.262;2024-02-04T21:54:04;10.70;82.30
17659;DHT22;8948;51.534;8.262;2024-02-04T21:59:05;10.70;82.10
17659;DHT22;8948;51.534;8.262;2024-02-04T22:04:06;10.70;82.10
17659;DHT22;8948;51.534;8.262;2024-02-04T22:09:07;10.70;82.20
17659;DHT22;8948;51.534;8.262;2024-02-04T22:14:08;10.80;81.90
17659;DHT22;8948;51.534;8.262;2024-02-04T22:19:09;10.80;81.80
17659;DHT22;8948;51.534;8.262;2024-02-04T22:24:11;10.80;81.80
17659;DHT22;8948;51.534;8.262;2024-02-04T22:29:12;10.80;81.70
17659;DHT22;8948;51.534;8.262;2024-02-04T22:34:13;10.80;81.70
17659;DHT22;8948;51.534;8.262;2024-02-04T22:39:14;10.80;82.50
17659;DHT22;8948;51.534;8.262;2024-02-04T22:44:14;10.70;82.60
17659;DHT22;8948;51.534;8.262;2024-02-04T22:49:15;10.70;82.30
17659;DHT22;8948;51.534;8.262;2024-02-04T22:54:15;10.80;82.30
17659;DHT22;8948;51.534;8.262;2024-02-04T22:59:16;10.80;82.50
17659;DHT22;8948;51.534;8.262;2024-02-04T23:04:16;10.80;82.30
17659;DHT22;8948;51.534;8.262;2024-02-04T23:09:17;10.70;82.00
17659;DHT22;8948;51.534;8.262;2024-02-04T23:14:17;10.70;82.20
17659;DHT22;8948;51.534;8.262;2024-02-04T23:19:18;10.80;82.20
17659;DHT22;8948;51.534;8.262;2024-02-04T23:24:20;10.80;82.00
17659;DHT22;8948;51.534;8.262;2024-02-04T23:29:20;10.80;82.60
17659;DHT22;8948;51.534;8.262;2024-02-04T23:34:21;10.80;82.80
17659;DHT22;8948;51.534;8.262;2024-02-04T23:39:21;10.70;82.90
17659;DHT22;8948;51.534;8.262;2024-02-04T23:44:23;10.80;82.40
17659;DHT22;8948;51.534;8.262;2024-02-04T23:49:23;10.80;81.70
17659;DHT22;8948;51.534;8.262;2024-02-04T23:54:24;10.80;81.70
17659;DHT22;8948;51.534;8.262;2024-02-04T23:59:25;10.80;81.80
